Latest Weather Observations for Brisbane

IDQ60901

Issued at 3:21 pm EST Tuesday 31 March 2015 (issued every 10 minutes, with the page automatically refreshed every 10 minutes)

About weather observations | Map of Brisbane area stations | Latest observations for Brisbane area | Other Formats
Station Details ID: 040913 Name: BRISBANE Lat: -27.48 Lon: 153.04 Height: 8.13 m
Data from the previous 72 hours. | See also: Recent months at Brisbane
Date/Time
EST
Tmp

°C
App
Tmp
°C
Dew
Point
°C
Rel
Hum
%
Delta-T

°C
Wind Press
QNH
hPa
Press
MSL
hPa
Rain
since
9 am
mm
Dir
 
Spd
km/h
Gust
km/h
Spd
kts
Gust
kts
31/03:00pm 24.8 26.1 17.5 64 4.5 ENE 7 13 4 7 1020.3 1020.3 0.2
31/02:30pm 25.2 26.4 17.4 62 4.9 ENE 7 13 4 7 1020.3 1020.3 0.2
31/02:00pm 24.8 25.2 17.3 63 4.6 E 11 17 6 9 1020.6 1020.6 0.0
31/01:30pm 24.6 26.0 17.8 66 4.3 ESE 7 13 4 7 1020.9 1020.9 0.0
31/01:00pm 24.6 25.9 18.5 69 3.8 ESE 9 15 5 8 1021.4 1021.4 0.0
31/12:30pm 25.0 26.8 19.6 72 3.5 E 9 15 5 8 1021.4 1021.4 0.0
31/12:00pm 24.8 26.8 19.2 71 3.6 ESE 7 15 4 8 1022.0 1022.0 0.0
31/11:30am 24.1 26.2 19.0 73 3.2 SSE 6 13 3 7 1022.3 1022.3 0.0
31/11:00am 23.6 26.0 18.9 75 3.0 SSE 4 7 2 4 1022.7 1022.7 0.0
31/10:30am 23.5 25.4 18.6 74 3.1 SSE 6 9 3 5 1022.7 1022.7 0.0
31/10:00am 23.6 25.5 18.5 73 3.2 SSE 6 9 3 5 1023.2 1023.2 0.0
31/09:30am 23.1 25.6 18.2 74 3.1 SW 2 6 1 3 1023.2 1023.2 0.0
31/09:00am 23.0 25.1 18.1 74 3.1 SW 4 7 2 4 1023.3 1023.3 0.0
31/08:30am 23.1 25.7 18.4 75 3.0 SSW 2 6 1 3 1023.0 1023.0 0.0
31/08:00am 22.0 24.3 17.8 77 2.6 SSW 2 6 1 3 1022.8 1022.8 0.0
31/07:30am 21.6 23.5 17.6 78 2.5 SW 4 9 2 5 1022.5 1022.5 0.0
31/07:00am 21.0 23.2 17.4 80 2.2 SW 2 7 1 4 1022.1 1022.1 0.0
31/06:30am 20.5 22.3 17.3 82 2.0 WSW 4 7 2 4 1022.0 1022.0 0.0
31/06:00am 19.9 22.2 16.7 82 1.9 CALM 0 2 0 1 1021.4 1021.4 0.0
31/05:30am 20.0 22.3 16.8 82 1.9 CALM 0 0 0 0 1021.4 1021.4 0.0
31/05:00am 20.5 22.6 17.1 81 2.1 SW 2 6 1 3 1021.5 1021.5 0.0
31/04:30am 20.6 23.1 17.2 81 2.1 CALM 0 0 0 0 1021.1 1021.1 0.0
31/04:00am 20.5 22.9 16.9 80 2.2 CALM 0 4 0 2 1021.1 1021.1 0.0
31/03:30am 20.4 22.8 17.0 81 2.1 CALM 0 4 0 2 1021.0 1021.0 0.0
31/03:00am 20.5 22.5 16.9 80 2.2 WSW 2 4 1 2 1021.3 1021.3 0.0
31/02:30am 20.9 23.0 17.3 80 2.2 SW 2 6 1 3 1021.4 1021.4 0.0
31/02:00am 20.9 23.0 17.3 80 2.2 WSW 2 4 1 2 1021.8 1021.8 0.0
31/01:30am 21.0 23.6 17.6 81 2.1 CALM 0 6 0 3 1022.1 1022.1 0.0
31/01:00am 20.6 23.0 17.0 80 2.2 CALM 0 0 0 0 1022.3 1022.3 0.0
31/12:30am 21.1 22.9 17.3 79 2.3 SSE 4 6 2 3 1022.5 1022.5 0.0
 
Date/Time
EST
Tmp

°C
App
Tmp
°C
Dew
Point
°C
Rel
Hum
%
Delta-T

°C
Wind Press
QNH
hPa
Press
MSL
hPa
Rain
since
9 am
mm
Dir
 
Spd
km/h
Gust
km/h
Spd
kts
Gust
kts
30/11:30pm 20.2 22.1 16.8 81 2.1 S 2 4 1 2 1022.8 1022.8 0.0
30/11:00pm 20.1 22.3 16.5 80 2.2 CALM 0 0 0 0 1022.8 1022.8 0.0
30/10:30pm 20.5 22.7 16.5 78 2.4 CALM 0 2 0 1 1022.9 1022.9 0.0
30/10:00pm 21.3 23.2 16.7 75 2.8 ESE 2 4 1 2 1023.2 1023.2 0.0
30/09:30pm 21.5 23.8 16.7 74 2.9 CALM 0 2 0 1 1023.2 1023.2 0.0
30/08:30pm 22.7 24.5 16.5 68 3.8 ESE 2 4 1 2 1023.2 1023.2 0.0
30/08:00pm 22.9 24.3 16.4 67 3.9 E 4 6 2 3 1023.0 1023.0 0.0
30/07:30pm 23.1 24.5 16.4 66 4.1 E 4 4 2 2 1022.9 1022.9 0.0
30/07:00pm 23.3 25.1 16.4 65 4.2 ESE 2 7 1 4 1022.7 1022.7 0.0
30/06:30pm 23.5 25.1 16.8 66 4.1 E 4 7 2 4 1022.1 1022.1 0.0
30/06:00pm 23.9 25.1 16.9 65 4.3 E 6 9 3 5 1021.8 1021.8 0.0
30/05:30pm 24.5 25.6 17.0 63 4.6 E 7 13 4 7 1021.4 1021.4 0.0
30/05:00pm 24.9 25.4 16.6 60 5.1 E 9 15 5 8 1021.3 1021.3 0.0
30/04:30pm 25.6 26.0 16.2 56 5.8 ENE 9 15 5 8 1021.2 1021.2 0.0
30/04:00pm 25.5 26.4 16.6 58 5.5 ENE 7 19 4 10 1020.8 1020.8 0.0
30/03:30pm 25.4 26.3 16.5 58 5.5 ENE 7 19 4 10 1020.6 1020.6 0.0
30/03:00pm 25.7 26.0 16.0 55 5.9 ENE 9 17 5 9 1020.7 1020.7 0.0
30/02:30pm 26.7 27.2 17.5 57 5.8 E 11 19 6 10 1020.8 1020.8 0.0
30/02:00pm 26.4 26.8 16.3 53 6.2 ENE 9 17 5 9 1021.1 1021.1 0.0
30/01:30pm 27.1 27.4 17.0 54 6.3 ENE 11 20 6 11 1020.9 1020.9 0.0
30/01:00pm 26.9 27.4 16.5 53 6.4 ENE 9 17 5 9 1021.5 1021.5 0.0
30/12:30pm 27.2 27.6 16.2 51 6.8 NE 9 17 5 9 1022.2 1022.2 0.0
30/12:00pm 26.1 26.4 16.1 54 6.1 ENE 9 17 5 9 1022.4 1022.4 0.0
30/11:30am 26.3 26.6 17.1 57 5.7 ENE 11 17 6 9 1022.9 1022.9 0.0
30/11:00am 25.9 26.6 17.0 58 5.5 ENE 9 15 5 8 1023.6 1023.6 0.0
30/10:30am 25.0 28.2 18.9 69 3.9 CALM 0 0 0 0 1024.0 1024.0 0.0
30/10:00am 24.0 26.0 19.1 74 3.1 WNW 7 9 4 5 1024.3 1024.3 0.0
30/09:30am 23.6 26.3 18.7 74 3.1 SW 2 4 1 2 1023.9 1023.9 0.0
30/09:00am 23.1 25.2 18.0 73 3.2 SW 4 7 2 4 1024.1 1024.1 0.0
30/08:30am 23.3 25.4 18.0 72 3.3 SW 4 7 2 4 1023.8 1023.8 0.0
30/08:00am 23.4 26.3 18.1 72 3.3 CALM 0 2 0 1 1023.7 1023.7 0.0
30/07:30am 22.3 24.9 18.3 78 2.5 SSW 2 4 1 2 1023.2 1023.2 0.0
30/07:00am 21.2 23.5 17.8 81 2.1 WSW 2 6 1 3 1023.1 1023.1 0.0
30/06:30am 20.4 22.7 17.6 84 1.7 WSW 2 4 1 2 1022.7 1022.7 0.0
30/06:00am 20.4 22.3 17.6 84 1.7 WSW 4 7 2 4 1022.6 1022.6 0.0
30/05:30am 20.4 22.7 17.6 84 1.7 SW 2 4 1 2 1022.2 1022.2 0.0
30/05:00am 20.5 22.4 17.7 84 1.7 WSW 4 7 2 4 1022.0 1022.0 0.0
30/04:30am 20.8 23.3 18.2 85 1.6 WSW 2 6 1 3 1021.6 1021.6 0.0
30/04:00am 20.7 23.6 18.1 85 1.6 CALM 0 2 0 1 1021.3 1021.3 0.0
30/03:30am 20.5 23.2 17.7 84 1.7 CALM 0 4 0 2 1021.3 1021.3 0.0
30/03:00am 21.0 23.1 18.2 84 1.7 SW 4 6 2 3 1021.6 1021.6 0.0
30/02:30am 21.0 23.6 18.4 85 1.6 WSW 2 4 1 2 1021.7 1021.7 0.0
30/02:00am 20.6 23.4 18.0 85 1.6 CALM 0 0 0 0 1021.7 1021.7 0.0
30/01:30am 20.3 23.0 17.7 85 1.6 CALM 0 0 0 0 1021.9 1021.9 0.0
30/01:00am 20.2 22.8 17.4 84 1.7 CALM 0 0 0 0 1022.0 1022.0 0.0
30/12:30am 20.3 23.0 17.7 85 1.6 CALM 0 0 0 0 1022.5 1022.5 0.0
30/12:00am 20.0 22.5 17.2 84 1.7 CALM 0 0 0 0 1022.6 1022.6 0.0
 
Date/Time
EST
Tmp

°C
App
Tmp
°C
Dew
Point
°C
Rel
Hum
%
Delta-T

°C
Wind Press
QNH
hPa
Press
MSL
hPa
Rain
since
9 am
mm
Dir
 
Spd
km/h
Gust
km/h
Spd
kts
Gust
kts
29/11:30pm 20.2 22.7 17.2 83 1.8 CALM 0 0 0 0 1022.6 1022.6 0.0
29/11:00pm 20.4 22.8 17.0 81 2.1 CALM 0 0 0 0 1022.9 1022.9 0.0
29/10:30pm 20.8 23.3 17.2 80 2.2 CALM 0 0 0 0 1022.8 1022.8 0.0
29/10:00pm 21.3 23.3 16.9 76 2.7 ESE 2 4 1 2 1022.8 1022.8 0.0
29/09:30pm 21.5 23.9 16.9 75 2.8 CALM 0 2 0 1 1023.0 1023.0 0.0
29/09:00pm 22.1 24.0 16.8 72 3.2 E 2 4 1 2 1023.1 1023.1 0.0
29/08:30pm 22.4 24.0 16.9 71 3.4 E 4 6 2 3 1023.2 1023.2 0.0
29/08:00pm 23.0 24.6 16.8 68 3.8 ESE 4 6 2 3 1023.0 1023.0 0.0
29/07:30pm 23.3 24.8 16.6 66 4.1 E 4 7 2 4 1022.6 1022.6 0.0
29/07:00pm 23.9 25.1 16.9 65 4.3 E 6 9 3 5 1022.1 1022.1 0.0
29/06:30pm 24.3 25.3 16.8 63 4.6 NE 7 15 4 8 1021.7 1021.7 0.0
29/06:00pm 24.6 25.1 16.6 61 4.9 ENE 9 15 5 8 1021.5 1021.5 0.0
29/05:30pm 25.0 25.4 16.2 58 5.4 NE 9 17 5 9 1021.3 1021.3 0.0
29/05:00pm 25.7 26.1 16.3 56 5.8 NE 9 19 5 10 1020.9 1020.9 0.0
29/04:30pm 26.3 26.9 16.8 56 5.9 NE 9 15 5 8 1021.0 1021.0 0.0
29/04:00pm 26.6 27.2 16.8 55 6.1 NE 9 22 5 12 1021.0 1021.0 0.0
29/03:30pm 26.8 27.0 16.7 54 6.3 ENE 11 17 6 9 1020.8 1020.8 0.0
29/03:00pm 27.4 27.7 17.0 53 6.5 ENE 11 20 6 11 1020.9 1020.9 0.0
29/02:30pm 27.5 28.1 17.7 55 6.2 ENE 11 19 6 10 1020.9 1020.9 0.0
29/02:00pm 27.8 28.2 17.3 52 6.6 NE 11 20 6 11 1021.1 1021.1 0.0
29/01:30pm 27.6 28.4 17.2 53 6.5 ENE 9 17 5 9 1021.2 1021.2 0.0
29/01:00pm 27.4 28.1 17.0 53 6.5 ENE 9 17 5 9 1021.5 1021.5 0.0
29/12:30pm 27.7 28.6 17.5 53 6.4 NE 9 17 5 9 1021.9 1021.9 0.0
29/12:00pm 27.2 28.3 17.1 54 6.3 ENE 7 13 4 7 1022.3 1022.3 0.0
29/11:30am 27.5 28.5 17.7 55 6.2 ENE 9 20 5 11 1022.8 1022.8 0.0
29/11:00am 27.2 27.8 17.7 56 6.0 ENE 11 19 6 10 1023.2 1023.2 0.0
29/10:30am 27.0 28.2 18.3 59 5.5 NE 9 17 5 9 1023.5 1023.5 0.0
29/10:00am 26.3 27.5 17.4 58 5.6 E 7 17 4 9 1023.7 1023.7 0.0
29/09:30am 26.4 26.9 17.5 58 5.6 E 11 20 6 11 1023.4 1023.4 0.0
29/09:00am 26.2 26.8 17.6 59 5.4 ENE 11 20 6 11 1023.3 1023.3 0.0
29/08:30am 25.1 27.3 18.3 66 4.3 E 4 11 2 6 1023.2 1023.2 0.0
29/08:00am 23.8 26.2 18.7 73 3.2 WSW 4 7 2 4 1023.0 1023.0 0.0
29/07:30am 23.0 25.6 18.5 76 2.8 WSW 2 4 1 2 1022.5 1022.5 0.0
29/07:00am 22.0 24.9 19.0 83 1.9 W 2 4 1 2 1022.0 1022.0 0.0
29/06:30am 20.9 23.7 18.8 88 1.3 WSW 2 2 1 1 1021.8 1021.8 0.0
29/06:00am 20.7 23.5 18.8 89 1.2 WSW 2 4 1 2 1021.5 1021.5 0.0
29/05:30am 20.0 22.9 18.1 89 1.2 CALM 0 0 0 0 1021.0 1021.0 0.0
29/05:00am 20.0 22.7 17.8 87 1.4 CALM 0 0 0 0 1020.6 1020.6 0.0
29/04:30am 20.4 23.2 18.0 86 1.5 CALM 0 0 0 0 1020.3 1020.3 0.0
29/04:00am 20.1 22.8 17.7 86 1.5 CALM 0 0 0 0 1020.1 1020.1 0.0
29/03:30am 20.2 22.8 17.4 84 1.7 CALM 0 2 0 1 1019.9 1019.9 0.0
29/03:00am 21.2 23.5 17.8 81 2.1 ESE 2 6 1 3 1019.7 1019.7 0.0
29/02:30am 21.4 23.6 17.4 78 2.5 E 2 4 1 2 1020.0 1020.0 0.0
29/02:00am 21.9 23.8 17.7 77 2.6 E 4 4 2 2 1020.3 1020.3 0.0
29/01:30am 22.4 24.7 17.8 75 2.9 SE 2 4 1 2 1020.8 1020.8 0.0
29/01:00am 22.7 25.0 17.8 74 3.0 E 2 4 1 2 1020.7 1020.7 0.0
29/12:30am 22.6 24.5 17.7 74 3.0 E 4 7 2 4 1020.8 1020.8 0.0
29/12:00am 22.8 25.3 18.1 75 2.9 ESE 2 4 1 2 1021.0 1021.0 0.0
 
Date/Time
EST
Tmp

°C
App
Tmp
°C
Dew
Point
°C
Rel
Hum
%
Delta-T

°C
Wind Press
QNH
hPa
Press
MSL
hPa
Rain
since
9 am
mm
Dir
 
Spd
km/h
Gust
km/h
Spd
kts
Gust
kts
28/11:30pm 22.6 24.7 18.2 76 2.8 ESE 4 6 2 3 1021.3 1021.3 0.0
28/11:00pm 21.1 23.4 16.7 76 2.7 CALM 0 0 0 0 1021.7 1021.7 0.0
28/10:30pm 22.1 24.1 17.0 73 3.1 ESE 2 4 1 2 1021.5 1021.5 0.0
28/10:00pm 22.9 24.8 17.6 72 3.3 ENE 4 7 2 4 1021.4 1021.4 0.0
28/09:30pm 23.1 24.8 17.1 69 3.7 E 4 9 2 5 1021.6 1021.6 0.0
28/09:00pm 23.3 24.9 16.8 67 4.0 ENE 4 7 2 4 1021.6 1021.6 0.0
28/08:30pm 24.0 25.3 17.0 65 4.3 E 6 11 3 6 1021.5 1021.5 0.0
28/08:00pm 24.0 25.2 16.8 64 4.4 E 6 7 3 4 1021.2 1021.2 0.0
28/07:30pm 23.9 24.7 15.9 61 4.8 E 6 9 3 5 1020.8 1020.8 0.0
28/07:00pm 23.9 24.4 15.1 58 5.2 E 6 9 3 5 1020.5 1020.5 0.0
28/06:30pm 23.9 24.2 14.6 56 5.5 E 6 11 3 6 1020.0 1020.0 0.0
28/06:00pm 24.2 24.3 15.4 58 5.3 E 9 17 5 9 1019.6 1019.6 0.0
28/05:30pm 25.0 25.0 16.2 58 5.4 E 11 17 6 9 1019.3 1019.3 0.0
28/05:00pm 25.8 25.1 15.5 53 6.2 E 13 19 7 10 1019.3 1019.3 0.0
28/04:30pm 26.3 26.6 16.0 53 6.3 E 9 17 5 9 1019.0 1019.0 0.0
28/04:00pm 26.9 25.9 14.6 46 7.4 E 13 22 7 12 1018.7 1018.7 0.0
28/03:30pm 26.9 26.5 15.3 49 7.0 E 11 20 6 11 1018.7 1018.7 0.0

Latest Capital City Observations: Canberra | Sydney | Melbourne | Brisbane | Adelaide | Perth | Hobart | Darwin

Other Formats:

Comma delimited format used in spreadsheet applications
http://www.bom.gov.au/fwo/IDQ60901/IDQ60901.94576.axf

JavaScript Object Notation format (JSON) in row-major order
http://www.bom.gov.au/fwo/IDQ60901/IDQ60901.94576.json